createdAt,value
2023-03-04T00:00:00.287Z,42.00
2023-03-04T00:02:26.565Z,45.30
2023-03-04T00:04:52.918Z,49.30
2023-03-04T00:07:19.275Z,45.07
2023-03-04T00:09:46.281Z,47.33
2023-03-04T00:12:13.294Z,45.80
2023-03-04T00:14:40.210Z,40.00
2023-03-04T00:17:07.066Z,42.87
2023-03-04T00:19:34.888Z,48.90
2023-03-04T00:22:01.572Z,49.07
2023-03-04T00:24:27.912Z,44.83
2023-03-04T00:26:54.186Z,45.90
2023-03-04T00:29:21.961Z,45.93
2023-03-04T00:31:48.506Z,49.80
2023-03-04T00:34:14.857Z,47.13
2023-03-04T00:36:41.256Z,54.07
2023-03-04T00:39:07.555Z,50.40
2023-03-04T00:41:33.865Z,41.97
2023-03-04T00:44:00.137Z,45.73
2023-03-04T00:46:26.452Z,44.37
2023-03-04T00:48:52.823Z,50.83
2023-03-04T00:51:19.174Z,36.60
2023-03-04T00:53:45.516Z,40.83
2023-03-04T00:56:11.805Z,40.37
2023-03-04T00:58:39.285Z,47.37
2023-03-04T01:01:06.526Z,41.37
2023-03-04T01:03:33.115Z,48.47
2023-03-04T01:05:59.797Z,41.13
2023-03-04T01:08:26.457Z,48.33
2023-03-04T01:10:52.889Z,41.63
2023-03-04T01:13:19.204Z,41.70
2023-03-04T01:15:45.653Z,38.43
2023-03-04T01:18:11.988Z,45.43
2023-03-04T01:20:38.346Z,47.77
2023-03-04T01:23:04.830Z,43.37
2023-03-04T01:25:31.493Z,40.60
2023-03-04T01:27:57.892Z,41.20
2023-03-04T01:30:24.220Z,43.63
2023-03-04T01:32:50.574Z,44.37
2023-03-04T01:35:16.933Z,41.87
2023-03-04T01:37:43.290Z,42.10
2023-03-04T01:40:10.565Z,45.90
2023-03-04T01:42:36.961Z,46.97
2023-03-04T01:45:04.573Z,42.60
2023-03-04T01:47:35.634Z,43.20
2023-03-04T01:50:11.348Z,51.00
2023-03-04T01:52:39.904Z,43.70
2023-03-04T01:55:15.738Z,46.37
2023-03-04T01:57:42.093Z,39.70
2023-03-04T02:00:32.796Z,43.40
2023-03-04T02:03:15.194Z,44.13
2023-03-04T02:05:45.216Z,41.83
2023-03-04T02:08:13.412Z,51.00
2023-03-04T02:10:42.272Z,44.87
2023-03-04T02:13:09.138Z,43.30
2023-03-04T02:15:35.515Z,43.70
2023-03-04T02:18:02.356Z,42.43
2023-03-04T02:20:48.994Z,48.67
2023-03-04T02:23:18.253Z,41.77
2023-03-04T02:25:52.802Z,56.27
2023-03-04T02:28:19.208Z,53.40
2023-03-04T02:30:45.824Z,46.37
2023-03-04T02:33:18.569Z,43.57
2023-03-04T02:35:46.201Z,51.27
2023-03-04T02:38:12.764Z,47.97
2023-03-04T02:40:43.009Z,47.50
2023-03-04T02:43:11.991Z,47.57
2023-03-04T02:45:40.473Z,46.30
2023-03-04T02:48:08.188Z,50.97
2023-03-04T02:50:45.501Z,46.40
2023-03-04T02:53:12.103Z,43.40
2023-03-04T02:55:38.554Z,49.20
2023-03-04T02:58:05.054Z,48.03
2023-03-04T03:00:31.414Z,44.90
2023-03-04T03:02:57.771Z,50.70
2023-03-04T03:05:29.660Z,45.90
2023-03-04T03:07:57.032Z,57.10
2023-03-04T03:10:24.034Z,49.47
2023-03-04T03:12:50.838Z,56.33
2023-03-04T03:15:17.245Z,54.43
2023-03-04T03:17:44.365Z,47.17
2023-03-04T03:20:12.338Z,48.43
2023-03-04T03:22:39.788Z,48.63
2023-03-04T03:25:07.025Z,54.00
2023-03-04T03:27:33.446Z,50.53
2023-03-04T03:29:59.723Z,51.70
2023-03-04T03:32:26.142Z,47.20
2023-03-04T03:34:52.563Z,45.57
2023-03-04T03:37:18.939Z,50.53
2023-03-04T03:39:45.302Z,47.03
2023-03-04T03:42:11.597Z,54.43
2023-03-04T03:44:37.917Z,57.50
2023-03-04T03:47:04.489Z,50.53
2023-03-04T03:49:30.789Z,53.53
2023-03-04T03:51:57.113Z,50.60
2023-03-04T03:54:23.655Z,49.47
2023-03-04T03:56:50.026Z,55.43
2023-03-04T03:59:16.326Z,53.10
2023-03-04T04:01:42.606Z,58.40
2023-03-04T04:04:09.059Z,50.77
2023-03-04T04:06:35.373Z,51.40
2023-03-04T04:09:01.656Z,55.53
2023-03-04T04:11:28.122Z,58.53
2023-03-04T04:13:54.453Z,60.63
2023-03-04T04:16:21.157Z,54.20
2023-03-04T04:18:47.472Z,56.17
2023-03-04T04:21:14.560Z,55.27
2023-03-04T04:23:40.887Z,52.93
2023-03-04T04:26:07.233Z,50.00
2023-03-04T04:28:33.587Z,56.80
2023-03-04T04:31:00.073Z,56.93
2023-03-04T04:33:26.454Z,52.60
2023-03-04T04:35:53.047Z,53.47
2023-03-04T04:38:19.406Z,52.93
2023-03-04T04:40:45.774Z,53.23
2023-03-04T04:43:12.123Z,54.33
2023-03-04T04:45:38.495Z,52.17
2023-03-04T04:48:04.929Z,45.03
2023-03-04T04:50:32.960Z,52.17
2023-03-04T04:52:59.425Z,52.50
2023-03-04T04:55:25.914Z,52.30
2023-03-04T04:57:52.355Z,54.93
2023-03-04T05:00:19.143Z,49.80
2023-03-04T05:02:45.585Z,48.33
2023-03-04T05:05:11.887Z,54.93
2023-03-04T05:07:38.181Z,55.80
2023-03-04T05:10:05.176Z,47.83
2023-03-04T05:12:31.448Z,51.93
2023-03-04T05:14:57.862Z,44.10
2023-03-04T05:17:24.253Z,41.83
2023-03-04T05:19:50.571Z,51.20
2023-03-04T05:22:16.980Z,38.13
2023-03-04T05:24:43.284Z,43.87
2023-03-04T05:27:09.633Z,38.33
2023-03-04T05:29:35.936Z,46.67
2023-03-04T05:32:02.319Z,39.17
2023-03-04T05:34:28.625Z,38.23
2023-03-04T05:36:54.976Z,35.30
2023-03-04T05:39:21.508Z,36.97
2023-03-04T05:41:47.880Z,38.80
2023-03-04T05:44:14.181Z,37.10
2023-03-04T05:46:40.581Z,37.93
2023-03-04T05:49:07.048Z,35.73
2023-03-04T05:51:33.359Z,38.40
2023-03-04T05:53:59.681Z,40.27
2023-03-04T05:56:26.013Z,39.23
2023-03-04T05:58:52.359Z,39.77
2023-03-04T06:01:18.662Z,33.50
2023-03-04T06:03:45.083Z,36.07
2023-03-04T06:06:11.460Z,35.10
2023-03-04T06:08:37.755Z,37.77
2023-03-04T06:11:05.452Z,34.53
2023-03-04T06:13:32.274Z,34.10
2023-03-04T06:15:59.528Z,37.97
2023-03-04T06:18:27.927Z,35.90
2023-03-04T06:20:59.048Z,37.63
2023-03-04T06:23:26.305Z,31.40
2023-03-04T06:25:54.177Z,38.67
2023-03-04T06:28:21.036Z,32.40
2023-03-04T06:30:47.337Z,32.93
2023-03-04T06:33:13.715Z,34.90
2023-03-04T06:35:40.149Z,36.80
2023-03-04T06:38:06.575Z,30.70
2023-03-04T06:40:33.308Z,32.40
2023-03-04T06:42:59.606Z,30.70
2023-03-04T06:45:25.964Z,29.13
2023-03-04T06:47:52.428Z,32.17
2023-03-04T06:50:19.041Z,33.33
2023-03-04T06:52:45.370Z,30.07
2023-03-04T06:55:12.925Z,29.67
2023-03-04T06:57:39.377Z,30.40
2023-03-04T07:00:06.479Z,30.43
2023-03-04T07:02:32.919Z,30.47
2023-03-04T07:04:59.189Z,30.67
2023-03-04T07:07:26.259Z,23.83
2023-03-04T07:09:52.595Z,25.83
2023-03-04T07:12:18.965Z,29.57
2023-03-04T07:14:45.328Z,29.10
2023-03-04T07:17:11.590Z,29.43
2023-03-04T07:19:38.119Z,25.30
2023-03-04T07:22:04.521Z,28.87
2023-03-04T07:24:30.798Z,27.17
2023-03-04T07:26:57.093Z,26.70
2023-03-04T07:29:23.430Z,25.33
2023-03-04T07:31:52.335Z,29.23
2023-03-04T07:34:19.915Z,24.10
2023-03-04T07:36:46.222Z,30.23
2023-03-04T07:39:13.604Z,24.13
2023-03-04T07:41:40.686Z,29.73
2023-03-04T07:44:08.225Z,24.23
2023-03-04T07:46:35.254Z,28.57
2023-03-04T07:49:01.521Z,30.40
2023-03-04T07:51:28.421Z,28.23
2023-03-04T07:53:57.913Z,27.13
2023-03-04T07:56:27.003Z,28.70
2023-03-04T07:58:53.588Z,21.17
2023-03-04T08:01:25.963Z,27.30
2023-03-04T08:03:52.701Z,22.90
2023-03-04T08:06:20.960Z,20.83
2023-03-04T08:08:48.567Z,26.67
2023-03-04T08:11:17.905Z,24.47
2023-03-04T08:13:44.632Z,27.07
2023-03-04T08:16:15.915Z,27.23
2023-03-04T08:18:48.094Z,29.13
2023-03-04T08:21:16.011Z,24.17
2023-03-04T08:23:42.526Z,24.23
2023-03-04T08:26:12.288Z,24.70
2023-03-04T08:28:38.740Z,24.30
2023-03-04T08:31:05.620Z,23.40
2023-03-04T08:33:32.780Z,28.83
2023-03-04T08:35:59.621Z,26.57
2023-03-04T08:38:26.446Z,21.97
2023-03-04T08:40:54.639Z,25.07
2023-03-04T08:43:21.833Z,27.60
2023-03-04T08:45:48.756Z,22.73
2023-03-04T08:48:18.702Z,28.33
2023-03-04T08:50:46.078Z,20.40
2023-03-04T08:53:13.306Z,22.87
2023-03-04T08:55:40.962Z,23.80
2023-03-04T08:58:08.666Z,19.67
2023-03-04T09:00:37.394Z,26.63
2023-03-04T09:03:04.746Z,20.87
2023-03-04T09:05:32.245Z,24.63
2023-03-04T09:07:59.061Z,28.90
2023-03-04T09:10:25.375Z,18.87
2023-03-04T09:12:51.914Z,23.47
2023-03-04T09:15:18.460Z,24.53
2023-03-04T09:17:44.875Z,24.57
2023-03-04T09:20:12.988Z,23.77
2023-03-04T09:22:40.866Z,28.17
2023-03-04T09:25:12.066Z,23.30
2023-03-04T09:27:39.328Z,24.90
2023-03-04T09:30:06.536Z,20.73
2023-03-04T09:32:32.909Z,17.13
2023-03-04T09:34:59.343Z,19.50
2023-03-04T09:37:25.633Z,16.80
2023-03-04T09:39:51.921Z,16.07
2023-03-04T09:42:25.590Z,21.60
2023-03-04T09:44:53.527Z,18.37
2023-03-04T09:47:23.341Z,19.37
2023-03-04T09:50:01.290Z,22.87
2023-03-04T09:52:37.873Z,21.13
2023-03-04T09:55:07.097Z,23.07
2023-03-04T09:57:42.443Z,21.53
2023-03-04T10:00:20.187Z,21.17
2023-03-04T10:03:09.774Z,18.57
2023-03-04T10:05:42.135Z,18.13
2023-03-04T10:08:22.521Z,16.97
2023-03-04T10:10:49.150Z,17.83
2023-03-04T10:13:23.659Z,16.40
2023-03-04T10:15:51.188Z,22.60
2023-03-04T10:18:39.309Z,21.57
2023-03-04T10:21:21.013Z,16.63
2023-03-04T10:23:48.280Z,23.23
2023-03-04T10:26:17.485Z,18.23
2023-03-04T10:28:44.050Z,20.67
2023-03-04T10:31:36.945Z,19.30
2023-03-04T10:34:04.874Z,18.93
2023-03-04T10:36:31.115Z,14.47
2023-03-04T10:39:05.213Z,16.40
2023-03-04T10:41:32.173Z,16.70
2023-03-04T10:43:58.515Z,17.10
2023-03-04T10:46:25.488Z,15.37
2023-03-04T10:48:53.709Z,15.70
2023-03-04T10:51:26.016Z,15.53
2023-03-04T10:54:09.628Z,14.70
2023-03-04T10:56:45.370Z,18.50
2023-03-04T10:59:53.592Z,16.23
2023-03-04T11:02:26.738Z,17.33
2023-03-04T11:05:19.129Z,15.13
2023-03-04T11:07:57.110Z,17.30
2023-03-04T11:10:35.835Z,16.57
2023-03-04T11:13:16.623Z,15.73
2023-03-04T11:15:53.445Z,15.80
2023-03-04T11:18:26.445Z,17.50
2023-03-04T11:20:54.644Z,14.20
2023-03-04T11:23:44.110Z,12.90
2023-03-04T11:26:16.350Z,15.07
2023-03-04T11:29:10.666Z,15.30
2023-03-04T11:31:45.309Z,12.57
2023-03-04T11:34:29.784Z,12.20
2023-03-04T11:37:03.518Z,11.80
2023-03-04T11:39:36.479Z,13.03
2023-03-04T11:42:11.259Z,11.73
2023-03-04T11:44:37.565Z,10.50
2023-03-04T11:47:30.947Z,9.53
2023-03-04T11:50:03.906Z,10.30
2023-03-04T11:52:44.149Z,15.40
2023-03-04T11:55:40.837Z,14.30
2023-03-04T11:58:18.996Z,9.53
2023-03-04T12:00:58.201Z,13.73
2023-03-04T12:03:44.839Z,9.57
2023-03-04T12:06:29.514Z,12.70
2023-03-04T12:09:23.625Z,11.37
2023-03-04T12:12:28.206Z,13.50
2023-03-04T12:15:13.292Z,14.63
2023-03-04T12:18:05.601Z,8.93
2023-03-04T12:20:34.950Z,11.67
2023-03-04T12:23:15.083Z,11.70
2023-03-04T12:25:47.100Z,12.57
2023-03-04T12:28:16.267Z,10.33
2023-03-04T12:31:20.147Z,8.07
2023-03-04T12:34:06.190Z,12.47
2023-03-04T12:36:40.852Z,8.93
2023-03-04T12:39:19.497Z,10.67
2023-03-04T12:42:13.819Z,8.10
2023-03-04T12:44:55.056Z,8.60
2023-03-04T12:47:53.523Z,7.47
2023-03-04T12:50:39.096Z,10.17
2023-03-04T12:53:21.546Z,6.80
2023-03-04T12:55:49.686Z,8.50
2023-03-04T12:58:20.056Z,10.77
2023-03-04T13:01:34.834Z,9.03
2023-03-04T13:04:23.160Z,9.93
2023-03-04T13:07:14.029Z,9.23
2023-03-04T13:10:04.743Z,7.60
2023-03-04T13:12:47.350Z,8.53
2023-03-04T13:15:13.633Z,7.07
2023-03-04T13:17:49.486Z,9.27
2023-03-04T13:20:21.578Z,9.00
2023-03-04T13:23:18.256Z,8.47
2023-03-04T13:25:50.422Z,9.47
2023-03-04T13:28:32.057Z,13.97
2023-03-04T13:30:59.425Z,12.30
2023-03-04T13:33:25.686Z,10.53
2023-03-04T13:36:04.163Z,11.03
2023-03-04T13:38:30.927Z,11.57
2023-03-04T13:41:00.014Z,6.73
2023-03-04T13:43:52.671Z,6.80
2023-03-04T13:46:19.160Z,12.93
2023-03-04T13:48:51.901Z,13.27
2023-03-04T13:51:37.494Z,8.10
2023-03-04T13:54:19.114Z,10.90
2023-03-04T13:56:47.690Z,9.57
2023-03-04T13:59:41.841Z,7.03
2023-03-04T14:02:27.141Z,11.50
2023-03-04T14:04:53.391Z,8.30
2023-03-04T14:07:33.388Z,10.30
2023-03-04T14:10:07.447Z,10.43
2023-03-04T14:12:53.023Z,9.40
2023-03-04T14:15:29.498Z,9.13
2023-03-04T14:18:01.750Z,10.40
2023-03-04T14:20:34.780Z,9.93
2023-03-04T14:23:03.957Z,9.37
2023-03-04T14:25:34.934Z,8.87
2023-03-04T14:28:17.813Z,9.13
2023-03-04T14:30:56.213Z,9.50
2023-03-04T14:33:26.186Z,8.17
2023-03-04T14:35:56.399Z,8.23
2023-03-04T14:38:24.866Z,10.30
2023-03-04T14:40:57.478Z,11.47
2023-03-04T14:43:24.655Z,8.23
2023-03-04T14:46:00.462Z,9.77
2023-03-04T14:48:33.397Z,9.20
2023-03-04T14:51:01.576Z,10.27
2023-03-04T14:53:30.456Z,9.60
2023-03-04T14:55:58.519Z,10.87
2023-03-04T14:58:28.148Z,11.63
2023-03-04T15:01:13.229Z,10.57
2023-03-04T15:03:40.841Z,9.40
2023-03-04T15:06:32.832Z,9.30
2023-03-04T15:09:20.777Z,10.87
2023-03-04T15:11:51.446Z,12.70
2023-03-04T15:14:39.532Z,10.77
2023-03-04T15:17:05.897Z,12.87
2023-03-04T15:19:32.327Z,9.50
2023-03-04T15:22:06.762Z,13.37
2023-03-04T15:24:33.078Z,12.73
2023-03-04T15:26:59.487Z,10.63
2023-03-04T15:29:25.820Z,9.83
2023-03-04T15:31:52.114Z,9.53
2023-03-04T15:34:20.888Z,8.47
2023-03-04T15:36:50.161Z,9.03
2023-03-04T15:39:18.430Z,9.27
2023-03-04T15:41:48.357Z,11.23
2023-03-04T15:44:14.699Z,12.93
2023-03-04T15:46:47.805Z,11.53
2023-03-04T15:49:14.103Z,9.37
2023-03-04T15:51:40.692Z,10.80
2023-03-04T15:54:14.237Z,10.93
2023-03-04T15:56:40.848Z,11.17
2023-03-04T15:59:12.127Z,11.63
2023-03-04T16:01:38.775Z,10.17
2023-03-04T16:04:05.663Z,9.87
2023-03-04T16:06:33.083Z,12.87
2023-03-04T16:09:00.551Z,9.13
2023-03-04T16:11:29.813Z,11.37
2023-03-04T16:13:56.379Z,11.27
2023-03-04T16:16:22.809Z,10.27
2023-03-04T16:18:49.149Z,10.80
2023-03-04T16:21:20.293Z,8.73
2023-03-04T16:23:48.941Z,8.87
2023-03-04T16:26:18.237Z,13.33
2023-03-04T16:28:44.634Z,12.17
2023-03-04T16:31:13.097Z,10.87
2023-03-04T16:33:39.573Z,8.87
2023-03-04T16:36:25.265Z,11.43
2023-03-04T16:38:54.926Z,10.20
2023-03-04T16:41:25.917Z,11.67
2023-03-04T16:43:52.272Z,12.83
2023-03-04T16:46:18.583Z,9.93
2023-03-04T16:48:47.328Z,7.40
2023-03-04T16:51:16.804Z,9.77
2023-03-04T16:53:47.193Z,13.07
2023-03-04T16:56:16.832Z,10.00
2023-03-04T16:58:44.136Z,10.37
2023-03-04T17:01:24.520Z,9.33
2023-03-04T17:03:51.609Z,11.67
2023-03-04T17:06:19.254Z,10.53
2023-03-04T17:08:45.647Z,11.87
2023-03-04T17:11:16.119Z,12.03
2023-03-04T17:13:42.726Z,12.57
2023-03-04T17:16:11.901Z,10.60
2023-03-04T17:18:38.849Z,11.47
2023-03-04T17:21:08.048Z,11.17
2023-03-04T17:23:35.064Z,9.67
2023-03-04T17:26:01.447Z,12.30
2023-03-04T17:28:28.366Z,15.43
2023-03-04T17:30:54.738Z,13.73
2023-03-04T17:33:21.183Z,11.13
2023-03-04T17:35:47.592Z,11.97
2023-03-04T17:38:14.896Z,11.43
2023-03-04T17:40:41.885Z,13.93
2023-03-04T17:43:11.252Z,16.27
2023-03-04T17:45:41.993Z,13.87
2023-03-04T17:48:14.900Z,12.30
2023-03-04T17:50:51.725Z,17.37
2023-03-04T17:53:18.643Z,14.37
2023-03-04T17:56:00.208Z,11.83
2023-03-04T17:58:29.093Z,17.10
2023-03-04T18:01:02.264Z,13.63
2023-03-04T18:03:28.829Z,13.40
2023-03-04T18:05:55.150Z,13.07
2023-03-04T18:08:24.013Z,12.87
2023-03-04T18:10:50.570Z,12.23
2023-03-04T18:13:16.938Z,11.60
2023-03-04T18:15:43.337Z,12.57
2023-03-04T18:18:09.755Z,12.07
2023-03-04T18:20:36.105Z,11.73
2023-03-04T18:23:02.487Z,12.17
2023-03-04T18:25:28.897Z,14.07
2023-03-04T18:27:55.255Z,13.10
2023-03-04T18:30:26.998Z,9.13
2023-03-04T18:32:54.641Z,10.43
2023-03-04T18:35:21.654Z,11.37
2023-03-04T18:37:48.952Z,13.10
2023-03-04T18:40:16.073Z,11.57
2023-03-04T18:42:45.348Z,11.47
2023-03-04T18:45:16.132Z,11.53
2023-03-04T18:47:46.251Z,10.67
2023-03-04T18:50:12.940Z,11.83
2023-03-04T18:52:39.394Z,11.17
2023-03-04T18:55:06.100Z,10.93
2023-03-04T18:57:32.519Z,9.57
2023-03-04T19:00:01.952Z,11.43
2023-03-04T19:02:36.877Z,9.90
2023-03-04T19:05:08.063Z,14.40
2023-03-04T19:07:34.346Z,13.77
2023-03-04T19:10:00.716Z,10.20
2023-03-04T19:12:27.136Z,12.03
2023-03-04T19:14:53.501Z,11.83
2023-03-04T19:17:19.779Z,12.83
2023-03-04T19:19:46.076Z,9.73
2023-03-04T19:22:12.721Z,9.00
2023-03-04T19:24:39.079Z,12.80
2023-03-04T19:27:05.484Z,10.63
2023-03-04T19:29:31.929Z,11.97
2023-03-04T19:31:58.346Z,13.40
2023-03-04T19:34:24.694Z,9.73
2023-03-04T19:36:50.983Z,11.70
2023-03-04T19:39:18.466Z,14.47
2023-03-04T19:41:44.940Z,11.00
2023-03-04T19:44:11.316Z,12.30
2023-03-04T19:46:37.682Z,9.80
2023-03-04T19:49:04.594Z,12.77
2023-03-04T19:51:32.639Z,12.90
2023-03-04T19:54:00.076Z,12.27
2023-03-04T19:56:26.515Z,13.23
2023-03-04T19:58:54.309Z,12.00
2023-03-04T20:01:27.401Z,12.87
2023-03-04T20:03:58.392Z,12.03
2023-03-04T20:06:26.932Z,11.73
2023-03-04T20:08:58.999Z,12.03
2023-03-04T20:11:26.632Z,12.97
2023-03-04T20:13:53.938Z,14.17
2023-03-04T20:16:20.715Z,10.43
2023-03-04T20:18:47.025Z,15.47
2023-03-04T20:21:13.374Z,11.73
2023-03-04T20:23:39.685Z,11.90
2023-03-04T20:26:06.124Z,11.20
2023-03-04T20:28:32.810Z,13.30
2023-03-04T20:31:31.079Z,14.80
2023-03-04T20:33:59.760Z,12.90
2023-03-04T20:36:28.822Z,12.07
2023-03-04T20:39:02.479Z,12.97
2023-03-04T20:41:31.643Z,13.97
2023-03-04T20:43:58.082Z,12.50
2023-03-04T20:46:39.683Z,11.37
2023-03-04T20:49:12.213Z,13.00
2023-03-04T20:51:39.467Z,12.77
2023-03-04T20:54:06.994Z,12.83
2023-03-04T20:56:33.952Z,12.50
2023-03-04T20:59:06.691Z,10.63
2023-03-04T21:01:33.172Z,12.33
2023-03-04T21:04:00.431Z,13.40
2023-03-04T21:06:29.098Z,12.40
2023-03-04T21:08:57.149Z,13.83
2023-03-04T21:11:23.677Z,11.77
2023-03-04T21:13:56.446Z,11.97
2023-03-04T21:16:26.140Z,11.27
2023-03-04T21:18:53.248Z,13.27
2023-03-04T21:21:23.275Z,11.40
2023-03-04T21:23:51.302Z,11.07
2023-03-04T21:26:18.871Z,14.53
2023-03-04T21:28:46.096Z,13.53
2023-03-04T21:31:35.217Z,14.63
2023-03-04T21:34:01.593Z,14.90
2023-03-04T21:36:27.929Z,13.90
2023-03-04T21:38:54.325Z,13.60
2023-03-04T21:41:23.088Z,15.43
2023-03-04T21:43:49.961Z,15.40
2023-03-04T21:46:17.435Z,16.03
2023-03-04T21:48:44.804Z,15.10
2023-03-04T21:51:13.951Z,14.90
2023-03-04T21:53:40.945Z,13.23
2023-03-04T21:56:07.331Z,14.77
2023-03-04T21:58:35.083Z,16.00
2023-03-04T22:01:18.981Z,15.70
2023-03-04T22:03:48.638Z,17.40
2023-03-04T22:06:16.091Z,16.63
2023-03-04T22:08:42.593Z,16.73
2023-03-04T22:11:11.354Z,15.97
2023-03-04T22:13:37.986Z,15.27
2023-03-04T22:16:07.522Z,15.20
2023-03-04T22:18:34.249Z,15.83
2023-03-04T22:21:03.024Z,14.47
2023-03-04T22:23:29.453Z,15.13
2023-03-04T22:25:58.835Z,15.20
2023-03-04T22:28:28.206Z,19.80
2023-03-04T22:30:55.959Z,17.17
2023-03-04T22:33:23.120Z,16.77
2023-03-04T22:35:49.868Z,17.17
2023-03-04T22:38:16.190Z,16.77
2023-03-04T22:40:42.565Z,14.77
2023-03-04T22:43:08.902Z,16.00
2023-03-04T22:45:35.316Z,16.47
2023-03-04T22:48:01.691Z,16.13
2023-03-04T22:50:28.200Z,15.63
2023-03-04T22:52:54.664Z,14.47
2023-03-04T22:55:22.119Z,14.67
2023-03-04T22:57:48.814Z,18.20
2023-03-04T23:00:15.689Z,13.37
2023-03-04T23:02:42.141Z,16.83
2023-03-04T23:05:09.098Z,12.90
2023-03-04T23:07:36.237Z,14.60
2023-03-04T23:10:04.563Z,12.93
2023-03-04T23:12:32.512Z,14.73
2023-03-04T23:14:59.006Z,16.00
2023-03-04T23:17:25.521Z,18.73
2023-03-04T23:19:52.248Z,16.33
2023-03-04T23:22:18.579Z,14.63
2023-03-04T23:24:45.016Z,13.93
2023-03-04T23:27:11.361Z,17.20
2023-03-04T23:29:37.756Z,14.63
2023-03-04T23:32:04.351Z,11.77
2023-03-04T23:34:30.672Z,14.30
2023-03-04T23:36:56.940Z,16.73
2023-03-04T23:39:23.345Z,14.83
2023-03-04T23:41:49.664Z,14.40
2023-03-04T23:44:16.129Z,15.67
2023-03-04T23:46:42.923Z,15.47
2023-03-04T23:49:12.330Z,20.03
2023-03-04T23:51:40.762Z,17.27
2023-03-04T23:54:07.611Z,16.40
2023-03-04T23:56:33.989Z,16.10
2023-03-04T23:59:00.775Z,14.20
